Tallinn, Estonia
Current Conditions -  °F | °C
As of 6:20 PM on Sunday 23 Nov 2014 (Local Time) from EETN Reporting Station
Haze Haze  
Wind Chill: 30°   Ceiling: 100
Heat Index: 34°   Visibility: 0.62mi
Dew Point: 34°   Wind: 5mph
Humidity: 100%   Direction: 180°S
Pressure: 30.53"   Gusts: NA
Location:  59.44°N, 24.74°E
Report Text: EETN 231620Z 18004KT 140V220 1000 R26/P2000 BR OVC001 01/01 Q1034 R08/290195 TEMPO 0600 FG
Loading
Personal Weather Stations






























Interactive Weather Map New forecast layout! Learn more

10-Day Weather Forecast

Advertisements
Track Severe Weather on mobile